sensor_id;sensor_type;location;lat;lon;timestamp;temperature;humidity
56336;DHT22;42241;53.510;10.170;2022-11-20T00:02:08;2.90;99.90
56336;DHT22;42241;53.510;10.170;2022-11-20T00:04:33;2.90;99.90
56336;DHT22;42241;53.510;10.170;2022-11-20T00:06:59;2.90;99.90
56336;DHT22;42241;53.510;10.170;2022-11-20T00:09:24;3.00;99.90
56336;DHT22;42241;53.510;10.170;2022-11-20T00:11:50;3.00;99.90
56336;DHT22;42241;53.510;10.170;2022-11-20T00:14:15;2.90;99.90
56336;DHT22;42241;53.510;10.170;2022-11-20T00:16:41;2.90;99.90
56336;DHT22;42241;53.510;10.170;2022-11-20T00:19:07;2.90;99.90
56336;DHT22;42241;53.510;10.170;2022-11-20T00:21:32;2.90;99.90
56336;DHT22;42241;53.510;10.170;2022-11-20T00:23:58;2.90;99.90
56336;DHT22;42241;53.510;10.170;2022-11-20T00:26:24;2.90;99.90
56336;DHT22;42241;53.510;10.170;2022-11-20T00:28:51;2.80;99.90
56336;DHT22;42241;53.510;10.170;2022-11-20T00:31:17;2.80;99.90
56336;DHT22;42241;53.510;10.170;2022-11-20T00:33:43;2.60;99.90
56336;DHT22;42241;53.510;10.170;2022-11-20T00:36:10;2.70;99.90
56336;DHT22;42241;53.510;10.170;2022-11-20T00:38:35;2.70;99.90
56336;DHT22;42241;53.510;10.170;2022-11-20T00:41:03;2.70;99.90
56336;DHT22;42241;53.510;10.170;2022-11-20T00:43:28;2.70;99.90
56336;DHT22;42241;53.510;10.170;2022-11-20T00:45:58;2.80;99.90
56336;DHT22;42241;53.510;10.170;2022-11-20T00:48:24;2.80;99.90
56336;DHT22;42241;53.510;10.170;2022-11-20T00:50:50;2.60;99.90
56336;DHT22;42241;53.510;10.170;2022-11-20T00:53:15;2.50;99.90
56336;DHT22;42241;53.510;10.170;2022-11-20T00:55:41;2.60;99.90
56336;DHT22;42241;53.510;10.170;2022-11-20T00:58:06;2.60;99.90
56336;DHT22;42241;53.510;10.170;2022-11-20T01:00:32;2.60;99.90
56336;DHT22;42241;53.510;10.170;2022-11-20T01:02:57;2.70;99.90
56336;DHT22;42241;53.510;10.170;2022-11-20T01:05:23;2.70;99.90
56336;DHT22;42241;53.510;10.170;2022-11-20T01:07:48;2.70;99.90
56336;DHT22;42241;53.510;10.170;2022-11-20T01:10:14;2.70;99.90
56336;DHT22;42241;53.510;10.170;2022-11-20T01:12:39;2.70;99.90
56336;DHT22;42241;53.510;10.170;2022-11-20T01:15:05;2.70;99.90
56336;DHT22;42241;53.510;10.170;2022-11-20T01:17:31;2.80;99.90
56336;DHT22;42241;53.510;10.170;2022-11-20T01:19:56;2.70;99.90
56336;DHT22;42241;53.510;10.170;2022-11-20T01:22:22;2.70;99.90
56336;DHT22;42241;53.510;10.170;2022-11-20T01:24:48;2.70;99.90
56336;DHT22;42241;53.510;10.170;2022-11-20T01:27:13;2.70;99.90
56336;DHT22;42241;53.510;10.170;2022-11-20T01:29:39;2.70;99.90
56336;DHT22;42241;53.510;10.170;2022-11-20T01:32:04;2.70;99.90
56336;DHT22;42241;53.510;10.170;2022-11-20T01:34:30;2.70;99.90
56336;DHT22;42241;53.510;10.170;2022-11-20T01:37:01;2.70;99.90
56336;DHT22;42241;53.510;10.170;2022-11-20T01:39:27;2.70;99.90
56336;DHT22;42241;53.510;10.170;2022-11-20T01:41:53;2.70;99.90
56336;DHT22;42241;53.510;10.170;2022-11-20T01:47:06;2.70;99.90
56336;DHT22;42241;53.510;10.170;2022-11-20T01:49:41;2.70;99.90
56336;DHT22;42241;53.510;10.170;2022-11-20T01:52:11;2.70;99.90
56336;DHT22;42241;53.510;10.170;2022-11-20T01:54:40;2.70;99.90
56336;DHT22;42241;53.510;10.170;2022-11-20T01:57:08;2.70;99.90
56336;DHT22;42241;53.510;10.170;2022-11-20T01:59:34;2.70;99.90
56336;DHT22;42241;53.510;10.170;2022-11-20T02:02:00;2.80;99.90
56336;DHT22;42241;53.510;10.170;2022-11-20T02:04:26;2.80;99.90
56336;DHT22;42241;53.510;10.170;2022-11-20T02:06:53;2.70;99.90
56336;DHT22;42241;53.510;10.170;2022-11-20T02:09:20;2.80;99.90
56336;DHT22;42241;53.510;10.170;2022-11-20T02:11:45;2.70;99.90
56336;DHT22;42241;53.510;10.170;2022-11-20T02:19:39;2.70;99.90
56336;DHT22;42241;53.510;10.170;2022-11-20T02:22:07;2.80;99.90
56336;DHT22;42241;53.510;10.170;2022-11-20T02:24:35;2.80;99.90
56336;DHT22;42241;53.510;10.170;2022-11-20T02:30:14;2.80;99.90
56336;DHT22;42241;53.510;10.170;2022-11-20T02:32:22;2.70;99.90
56336;DHT22;42241;53.510;10.170;2022-11-20T02:34:47;2.80;99.90
56336;DHT22;42241;53.510;10.170;2022-11-20T02:37:19;2.70;99.90
56336;DHT22;42241;53.510;10.170;2022-11-20T02:39:46;2.70;99.90
56336;DHT22;42241;53.510;10.170;2022-11-20T02:42:12;2.60;99.90
56336;DHT22;42241;53.510;10.170;2022-11-20T02:44:40;2.60;99.90
56336;DHT22;42241;53.510;10.170;2022-11-20T02:47:06;2.60;99.90
56336;DHT22;42241;53.510;10.170;2022-11-20T02:49:32;2.60;99.90
56336;DHT22;42241;53.510;10.170;2022-11-20T02:51:58;2.60;99.90
56336;DHT22;42241;53.510;10.170;2022-11-20T02:54:23;2.70;99.90
56336;DHT22;42241;53.510;10.170;2022-11-20T02:56:49;2.60;99.90
56336;DHT22;42241;53.510;10.170;2022-11-20T02:59:15;2.60;99.90
56336;DHT22;42241;53.510;10.170;2022-11-20T03:01:42;2.60;99.90
56336;DHT22;42241;53.510;10.170;2022-11-20T03:04:07;2.70;99.90
56336;DHT22;42241;53.510;10.170;2022-11-20T03:06:33;2.70;99.90
56336;DHT22;42241;53.510;10.170;2022-11-20T03:08:58;2.70;99.90
56336;DHT22;42241;53.510;10.170;2022-11-20T03:11:24;2.80;99.90
56336;DHT22;42241;53.510;10.170;2022-11-20T03:13:50;2.80;99.90
56336;DHT22;42241;53.510;10.170;2022-11-20T03:16:19;2.80;99.90
56336;DHT22;42241;53.510;10.170;2022-11-20T03:18:45;2.80;99.90
56336;DHT22;42241;53.510;10.170;2022-11-20T03:21:11;2.80;99.90
56336;DHT22;42241;53.510;10.170;2022-11-20T03:23:37;2.80;99.90
56336;DHT22;42241;53.510;10.170;2022-11-20T03:26:09;2.90;99.90
56336;DHT22;42241;53.510;10.170;2022-11-20T03:28:35;2.90;99.90
56336;DHT22;42241;53.510;10.170;2022-11-20T03:31:08;2.90;99.90
56336;DHT22;42241;53.510;10.170;2022-11-20T03:33:34;2.90;99.90
56336;DHT22;42241;53.510;10.170;2022-11-20T03:36:01;2.90;99.90
56336;DHT22;42241;53.510;10.170;2022-11-20T03:38:28;3.00;99.90
56336;DHT22;42241;53.510;10.170;2022-11-20T03:40:57;3.00;99.90
56336;DHT22;42241;53.510;10.170;2022-11-20T03:43:23;3.00;99.90
56336;DHT22;42241;53.510;10.170;2022-11-20T03:45:48;2.90;99.90
56336;DHT22;42241;53.510;10.170;2022-11-20T03:48:14;2.80;99.90
56336;DHT22;42241;53.510;10.170;2022-11-20T03:50:41;2.80;99.90
56336;DHT22;42241;53.510;10.170;2022-11-20T03:53:06;2.80;99.90
56336;DHT22;42241;53.510;10.170;2022-11-20T03:55:32;2.80;99.90
56336;DHT22;42241;53.510;10.170;2022-11-20T03:57:57;2.80;99.90
56336;DHT22;42241;53.510;10.170;2022-11-20T04:00:23;2.80;99.90
56336;DHT22;42241;53.510;10.170;2022-11-20T04:02:48;2.80;99.90
56336;DHT22;42241;53.510;10.170;2022-11-20T04:05:14;2.80;99.90
56336;DHT22;42241;53.510;10.170;2022-11-20T04:07:39;2.80;99.90
56336;DHT22;42241;53.510;10.170;2022-11-20T04:10:05;2.80;99.90
56336;DHT22;42241;53.510;10.170;2022-11-20T04:12:31;2.80;99.90
56336;DHT22;42241;53.510;10.170;2022-11-20T04:14:57;2.80;99.90
56336;DHT22;42241;53.510;10.170;2022-11-20T04:17:22;2.80;99.90
56336;DHT22;42241;53.510;10.170;2022-11-20T04:19:48;2.80;99.90
56336;DHT22;42241;53.510;10.170;2022-11-20T04:22:13;2.80;99.90
56336;DHT22;42241;53.510;10.170;2022-11-20T04:24:39;2.80;99.90
56336;DHT22;42241;53.510;10.170;2022-11-20T04:27:04;2.80;99.90
56336;DHT22;42241;53.510;10.170;2022-11-20T04:29:30;2.80;99.90
56336;DHT22;42241;53.510;10.170;2022-11-20T04:31:55;2.80;99.90
56336;DHT22;42241;53.510;10.170;2022-11-20T04:34:21;2.80;99.90
56336;DHT22;42241;53.510;10.170;2022-11-20T04:36:46;2.70;99.90
56336;DHT22;42241;53.510;10.170;2022-11-20T04:39:13;2.70;99.90
56336;DHT22;42241;53.510;10.170;2022-11-20T04:41:39;2.70;99.90
56336;DHT22;42241;53.510;10.170;2022-11-20T04:44:05;2.80;99.90
56336;DHT22;42241;53.510;10.170;2022-11-20T04:46:34;2.70;99.90
56336;DHT22;42241;53.510;10.170;2022-11-20T04:49:00;2.70;99.90
56336;DHT22;42241;53.510;10.170;2022-11-20T04:51:26;2.70;99.90
56336;DHT22;42241;53.510;10.170;2022-11-20T04:53:51;2.70;99.90
56336;DHT22;42241;53.510;10.170;2022-11-20T04:56:17;2.70;99.90
56336;DHT22;42241;53.510;10.170;2022-11-20T04:58:42;2.80;99.90
56336;DHT22;42241;53.510;10.170;2022-11-20T05:03:37;2.90;99.90
56336;DHT22;42241;53.510;10.170;2022-11-20T05:06:04;2.90;99.90
56336;DHT22;42241;53.510;10.170;2022-11-20T05:08:30;2.90;99.90
56336;DHT22;42241;53.510;10.170;2022-11-20T05:11:09;2.80;99.90
56336;DHT22;42241;53.510;10.170;2022-11-20T05:13:35;2.80;99.90
56336;DHT22;42241;53.510;10.170;2022-11-20T05:16:01;2.70;99.90
56336;DHT22;42241;53.510;10.170;2022-11-20T05:18:27;2.70;99.90
56336;DHT22;42241;53.510;10.170;2022-11-20T05:20:56;2.70;99.90
56336;DHT22;42241;53.510;10.170;2022-11-20T05:23:24;2.70;99.90
56336;DHT22;42241;53.510;10.170;2022-11-20T05:25:53;2.60;99.90
56336;DHT22;42241;53.510;10.170;2022-11-20T05:28:19;2.60;99.90
56336;DHT22;42241;53.510;10.170;2022-11-20T05:30:45;2.60;99.90
56336;DHT22;42241;53.510;10.170;2022-11-20T05:33:10;2.60;99.90
56336;DHT22;42241;53.510;10.170;2022-11-20T05:35:36;2.60;99.90
56336;DHT22;42241;53.510;10.170;2022-11-20T05:38:02;2.60;99.90
56336;DHT22;42241;53.510;10.170;2022-11-20T05:40:27;2.60;99.90
56336;DHT22;42241;53.510;10.170;2022-11-20T05:42:53;2.50;99.90
56336;DHT22;42241;53.510;10.170;2022-11-20T05:45:18;2.50;99.90
56336;DHT22;42241;53.510;10.170;2022-11-20T05:47:44;2.60;99.90
56336;DHT22;42241;53.510;10.170;2022-11-20T05:50:09;2.50;99.90
56336;DHT22;42241;53.510;10.170;2022-11-20T05:52:35;2.50;99.90
56336;DHT22;42241;53.510;10.170;2022-11-20T05:55:00;2.50;99.90
56336;DHT22;42241;53.510;10.170;2022-11-20T05:57:26;2.50;99.90
56336;DHT22;42241;53.510;10.170;2022-11-20T05:59:52;2.50;99.90
56336;DHT22;42241;53.510;10.170;2022-11-20T06:02:17;2.40;99.90
56336;DHT22;42241;53.510;10.170;2022-11-20T06:04:43;2.40;99.90
56336;DHT22;42241;53.510;10.170;2022-11-20T06:07:09;2.30;99.90
56336;DHT22;42241;53.510;10.170;2022-11-20T06:09:34;2.30;99.90
56336;DHT22;42241;53.510;10.170;2022-11-20T06:12:00;2.30;99.90
56336;DHT22;42241;53.510;10.170;2022-11-20T06:14:25;2.40;99.90
56336;DHT22;42241;53.510;10.170;2022-11-20T06:16:51;2.40;99.90
56336;DHT22;42241;53.510;10.170;2022-11-20T06:19:18;2.30;99.90
56336;DHT22;42241;53.510;10.170;2022-11-20T06:21:43;2.30;99.90
56336;DHT22;42241;53.510;10.170;2022-11-20T06:24:12;2.40;99.90
56336;DHT22;42241;53.510;10.170;2022-11-20T06:26:37;2.40;99.90
56336;DHT22;42241;53.510;10.170;2022-11-20T06:29:03;2.40;99.90
56336;DHT22;42241;53.510;10.170;2022-11-20T06:31:28;2.30;99.90
56336;DHT22;42241;53.510;10.170;2022-11-20T06:33:55;2.30;99.90
56336;DHT22;42241;53.510;10.170;2022-11-20T06:36:21;2.30;99.90
56336;DHT22;42241;53.510;10.170;2022-11-20T06:38:46;2.30;99.90
56336;DHT22;42241;53.510;10.170;2022-11-20T06:41:17;2.20;99.90
56336;DHT22;42241;53.510;10.170;2022-11-20T06:43:43;2.20;99.90
56336;DHT22;42241;53.510;10.170;2022-11-20T06:46:09;2.30;99.90
56336;DHT22;42241;53.510;10.170;2022-11-20T06:48:35;2.30;99.90
56336;DHT22;42241;53.510;10.170;2022-11-20T06:51:02;2.20;99.90
56336;DHT22;42241;53.510;10.170;2022-11-20T06:53:28;2.30;99.90
56336;DHT22;42241;53.510;10.170;2022-11-20T06:55:55;2.30;99.90
56336;DHT22;42241;53.510;10.170;2022-11-20T06:58:20;2.30;99.90
56336;DHT22;42241;53.510;10.170;2022-11-20T07:00:46;2.30;99.90
56336;DHT22;42241;53.510;10.170;2022-11-20T07:03:11;2.30;99.90
56336;DHT22;42241;53.510;10.170;2022-11-20T07:05:37;2.40;99.90
56336;DHT22;42241;53.510;10.170;2022-11-20T07:08:03;2.40;99.90
56336;DHT22;42241;53.510;10.170;2022-11-20T07:10:30;2.50;99.90
56336;DHT22;42241;53.510;10.170;2022-11-20T07:12:55;2.50;99.90
56336;DHT22;42241;53.510;10.170;2022-11-20T07:15:22;2.50;99.90
56336;DHT22;42241;53.510;10.170;2022-11-20T07:17:47;2.50;99.90
56336;DHT22;42241;53.510;10.170;2022-11-20T07:20:13;2.60;99.90
56336;DHT22;42241;53.510;10.170;2022-11-20T07:22:39;2.50;99.90
56336;DHT22;42241;53.510;10.170;2022-11-20T07:25:05;2.60;99.90
56336;DHT22;42241;53.510;10.170;2022-11-20T07:27:31;2.60;99.90
56336;DHT22;42241;53.510;10.170;2022-11-20T07:29:56;2.50;99.90
56336;DHT22;42241;53.510;10.170;2022-11-20T07:32:22;2.50;99.90
56336;DHT22;42241;53.510;10.170;2022-11-20T07:34:47;2.50;99.90
56336;DHT22;42241;53.510;10.170;2022-11-20T07:37:13;2.60;99.90
56336;DHT22;42241;53.510;10.170;2022-11-20T07:39:39;2.60;99.90
56336;DHT22;42241;53.510;10.170;2022-11-20T07:42:05;2.60;99.90
56336;DHT22;42241;53.510;10.170;2022-11-20T07:44:31;2.60;99.90
56336;DHT22;42241;53.510;10.170;2022-11-20T07:46:57;2.60;99.90
56336;DHT22;42241;53.510;10.170;2022-11-20T07:49:22;2.60;99.90
56336;DHT22;42241;53.510;10.170;2022-11-20T07:51:50;2.60;99.90
56336;DHT22;42241;53.510;10.170;2022-11-20T07:54:15;2.60;99.90
56336;DHT22;42241;53.510;10.170;2022-11-20T07:56:41;2.70;99.90
56336;DHT22;42241;53.510;10.170;2022-11-20T07:59:06;2.70;99.90
56336;DHT22;42241;53.510;10.170;2022-11-20T08:01:32;2.60;99.90
56336;DHT22;42241;53.510;10.170;2022-11-20T08:03:58;2.60;99.90
56336;DHT22;42241;53.510;10.170;2022-11-20T08:06:27;2.60;99.90
56336;DHT22;42241;53.510;10.170;2022-11-20T08:08:52;2.60;99.90
56336;DHT22;42241;53.510;10.170;2022-11-20T08:11:21;2.60;99.90
56336;DHT22;42241;53.510;10.170;2022-11-20T08:14:05;2.70;99.90
56336;DHT22;42241;53.510;10.170;2022-11-20T08:16:37;2.70;99.90
56336;DHT22;42241;53.510;10.170;2022-11-20T08:19:02;2.80;99.90
56336;DHT22;42241;53.510;10.170;2022-11-20T08:21:28;2.70;99.90
56336;DHT22;42241;53.510;10.170;2022-11-20T08:23:55;2.70;99.90
56336;DHT22;42241;53.510;10.170;2022-11-20T08:26:20;2.70;99.90
56336;DHT22;42241;53.510;10.170;2022-11-20T08:28:46;2.70;99.90
56336;DHT22;42241;53.510;10.170;2022-11-20T08:31:12;2.60;99.90
56336;DHT22;42241;53.510;10.170;2022-11-20T08:33:37;2.60;99.90
56336;DHT22;42241;53.510;10.170;2022-11-20T08:36:03;2.70;99.90
56336;DHT22;42241;53.510;10.170;2022-11-20T08:38:29;2.80;99.90
56336;DHT22;42241;53.510;10.170;2022-11-20T08:40:58;2.90;99.90
56336;DHT22;42241;53.510;10.170;2022-11-20T08:43:42;3.00;99.90
56336;DHT22;42241;53.510;10.170;2022-11-20T08:46:08;3.10;99.90
56336;DHT22;42241;53.510;10.170;2022-11-20T08:48:33;3.20;99.90
56336;DHT22;42241;53.510;10.170;2022-11-20T08:50:59;3.20;99.90
56336;DHT22;42241;53.510;10.170;2022-11-20T08:53:25;3.20;99.90
56336;DHT22;42241;53.510;10.170;2022-11-20T08:55:50;3.30;99.90
56336;DHT22;42241;53.510;10.170;2022-11-20T08:58:16;3.30;99.90
56336;DHT22;42241;53.510;10.170;2022-11-20T09:00:41;3.30;99.90
56336;DHT22;42241;53.510;10.170;2022-11-20T09:03:07;3.30;99.90
56336;DHT22;42241;53.510;10.170;2022-11-20T09:05:32;3.20;99.90
56336;DHT22;42241;53.510;10.170;2022-11-20T09:07:58;3.30;99.90
56336;DHT22;42241;53.510;10.170;2022-11-20T09:10:24;3.10;99.90
56336;DHT22;42241;53.510;10.170;2022-11-20T09:12:50;3.20;99.90
56336;DHT22;42241;53.510;10.170;2022-11-20T09:15:17;3.10;99.90
56336;DHT22;42241;53.510;10.170;2022-11-20T09:17:42;3.40;99.90
56336;DHT22;42241;53.510;10.170;2022-11-20T09:20:15;3.70;99.90
56336;DHT22;42241;53.510;10.170;2022-11-20T09:22:41;4.00;99.90
56336;DHT22;42241;53.510;10.170;2022-11-20T09:25:07;4.20;99.90
56336;DHT22;42241;53.510;10.170;2022-11-20T09:27:32;4.30;99.90
56336;DHT22;42241;53.510;10.170;2022-11-20T09:29:58;4.20;99.90
56336;DHT22;42241;53.510;10.170;2022-11-20T09:32:23;4.10;99.90
56336;DHT22;42241;53.510;10.170;2022-11-20T09:34:49;4.10;99.90
56336;DHT22;42241;53.510;10.170;2022-11-20T09:37:14;4.10;99.90
56336;DHT22;42241;53.510;10.170;2022-11-20T09:39:40;4.10;99.90
56336;DHT22;42241;53.510;10.170;2022-11-20T09:47:27;4.50;99.90
56336;DHT22;42241;53.510;10.170;2022-11-20T09:54:49;4.10;99.90
56336;DHT22;42241;53.510;10.170;2022-11-20T09:57:19;4.40;99.90
56336;DHT22;42241;53.510;10.170;2022-11-20T09:59:49;4.60;99.90
56336;DHT22;42241;53.510;10.170;2022-11-20T10:02:17;4.60;99.90
56336;DHT22;42241;53.510;10.170;2022-11-20T10:04:47;4.30;99.90
56336;DHT22;42241;53.510;10.170;2022-11-20T10:07:20;3.90;99.90
56336;DHT22;42241;53.510;10.170;2022-11-20T10:09:52;3.70;99.90
56336;DHT22;42241;53.510;10.170;2022-11-20T10:14:50;3.70;99.90
56336;DHT22;42241;53.510;10.170;2022-11-20T10:17:38;3.70;99.90
56336;DHT22;42241;53.510;10.170;2022-11-20T10:25:17;3.60;99.90
56336;DHT22;42241;53.510;10.170;2022-11-20T10:30:11;3.80;99.90
56336;DHT22;42241;53.510;10.170;2022-11-20T10:32:41;4.00;99.90
56336;DHT22;42241;53.510;10.170;2022-11-20T10:35:14;4.20;99.90
56336;DHT22;42241;53.510;10.170;2022-11-20T10:37:42;4.30;99.90
56336;DHT22;42241;53.510;10.170;2022-11-20T10:42:48;4.20;99.90
56336;DHT22;42241;53.510;10.170;2022-11-20T10:48:16;4.30;99.90
56336;DHT22;42241;53.510;10.170;2022-11-20T10:50:52;4.50;99.90
56336;DHT22;42241;53.510;10.170;2022-11-20T10:53:40;4.40;99.90
56336;DHT22;42241;53.510;10.170;2022-11-20T10:56:53;4.30;99.90
56336;DHT22;42241;53.510;10.170;2022-11-20T10:59:55;4.30;99.90
56336;DHT22;42241;53.510;10.170;2022-11-20T11:01:48;4.40;99.90
56336;DHT22;42241;53.510;10.170;2022-11-20T11:04:36;4.30;99.90
56336;DHT22;42241;53.510;10.170;2022-11-20T11:07:10;4.50;99.90
56336;DHT22;42241;53.510;10.170;2022-11-20T11:09:46;6.70;99.90
56336;DHT22;42241;53.510;10.170;2022-11-20T11:12:12;8.40;99.90
56336;DHT22;42241;53.510;10.170;2022-11-20T11:14:42;12.00;99.90
56336;DHT22;42241;53.510;10.170;2022-11-20T11:17:17;14.50;99.90
56336;DHT22;42241;53.510;10.170;2022-11-20T11:19:43;13.10;99.90
56336;DHT22;42241;53.510;10.170;2022-11-20T11:22:10;10.90;99.90
56336;DHT22;42241;53.510;10.170;2022-11-20T11:24:43;9.40;99.90
56336;DHT22;42241;53.510;10.170;2022-11-20T11:27:16;8.50;99.90
56336;DHT22;42241;53.510;10.170;2022-11-20T11:29:42;7.60;99.90
56336;DHT22;42241;53.510;10.170;2022-11-20T11:35:53;6.40;99.90
56336;DHT22;42241;53.510;10.170;2022-11-20T11:38:04;6.10;99.90
56336;DHT22;42241;53.510;10.170;2022-11-20T11:40:31;5.80;99.90
56336;DHT22;42241;53.510;10.170;2022-11-20T11:43:02;5.80;99.90
56336;DHT22;42241;53.510;10.170;2022-11-20T11:45:29;5.50;99.90
56336;DHT22;42241;53.510;10.170;2022-11-20T11:48:01;5.30;99.90
56336;DHT22;42241;53.510;10.170;2022-11-20T11:50:28;5.20;99.90
56336;DHT22;42241;53.510;10.170;2022-11-20T11:53:11;5.00;99.90
56336;DHT22;42241;53.510;10.170;2022-11-20T11:55:38;5.00;99.90
56336;DHT22;42241;53.510;10.170;2022-11-20T12:00:38;4.80;99.90
56336;DHT22;42241;53.510;10.170;2022-11-20T12:03:14;4.70;99.90
56336;DHT22;42241;53.510;10.170;2022-11-20T12:05:45;4.60;99.90
56336;DHT22;42241;53.510;10.170;2022-11-20T12:10:54;4.50;99.90
56336;DHT22;42241;53.510;10.170;2022-11-20T12:15:49;4.40;99.90
56336;DHT22;42241;53.510;10.170;2022-11-20T12:18:16;4.40;99.90
56336;DHT22;42241;53.510;10.170;2022-11-20T12:20:45;4.50;99.90
56336;DHT22;42241;53.510;10.170;2022-11-20T12:23:28;4.60;99.90
56336;DHT22;42241;53.510;10.170;2022-11-20T12:25:58;4.80;99.90
56336;DHT22;42241;53.510;10.170;2022-11-20T12:28:33;4.90;99.90
56336;DHT22;42241;53.510;10.170;2022-11-20T12:47:08;4.50;99.90
56336;DHT22;42241;53.510;10.170;2022-11-20T12:50:02;4.50;99.90
56336;DHT22;42241;53.510;10.170;2022-11-20T12:57:50;4.60;99.90
56336;DHT22;42241;53.510;10.170;2022-11-20T13:00:19;4.40;99.90
56336;DHT22;42241;53.510;10.170;2022-11-20T13:07:57;4.20;99.90
56336;DHT22;42241;53.510;10.170;2022-11-20T13:10:33;4.10;99.90
56336;DHT22;42241;53.510;10.170;2022-11-20T13:18:03;4.00;99.90
56336;DHT22;42241;53.510;10.170;2022-11-20T13:20:29;4.00;99.90
56336;DHT22;42241;53.510;10.170;2022-11-20T13:22:55;4.20;99.90
56336;DHT22;42241;53.510;10.170;2022-11-20T13:27:48;4.10;99.90
56336;DHT22;42241;53.510;10.170;2022-11-20T13:30:15;4.10;99.90
56336;DHT22;42241;53.510;10.170;2022-11-20T13:32:51;4.20;99.90
56336;DHT22;42241;53.510;10.170;2022-11-20T13:35:25;4.40;99.90
56336;DHT22;42241;53.510;10.170;2022-11-20T13:40:26;5.00;99.90
56336;DHT22;42241;53.510;10.170;2022-11-20T13:45:24;5.50;99.90
56336;DHT22;42241;53.510;10.170;2022-11-20T13:47:50;5.60;99.90
56336;DHT22;42241;53.510;10.170;2022-11-20T13:50:16;5.50;99.90
56336;DHT22;42241;53.510;10.170;2022-11-20T14:00:27;4.40;99.90
56336;DHT22;42241;53.510;10.170;2022-11-20T14:05:23;4.40;99.90
56336;DHT22;42241;53.510;10.170;2022-11-20T14:07:49;4.50;99.90
56336;DHT22;42241;53.510;10.170;2022-11-20T14:10:23;4.50;99.90
56336;DHT22;42241;53.510;10.170;2022-11-20T14:12:48;4.50;99.90
56336;DHT22;42241;53.510;10.170;2022-11-20T14:17:56;4.40;99.90
56336;DHT22;42241;53.510;10.170;2022-11-20T14:20:23;4.30;99.90
56336;DHT22;42241;53.510;10.170;2022-11-20T14:22:50;4.30;99.90
56336;DHT22;42241;53.510;10.170;2022-11-20T14:27:42;4.20;99.90
56336;DHT22;42241;53.510;10.170;2022-11-20T14:30:15;4.10;99.90
56336;DHT22;42241;53.510;10.170;2022-11-20T14:32:42;4.10;99.90
56336;DHT22;42241;53.510;10.170;2022-11-20T14:35:09;3.90;99.90
56336;DHT22;42241;53.510;10.170;2022-11-20T14:37:38;3.90;99.90
56336;DHT22;42241;53.510;10.170;2022-11-20T14:40:28;3.90;99.90
56336;DHT22;42241;53.510;10.170;2022-11-20T14:42:51;3.90;99.90
56336;DHT22;42241;53.510;10.170;2022-11-20T14:45:17;3.90;99.90
56336;DHT22;42241;53.510;10.170;2022-11-20T14:47:43;4.00;99.90
56336;DHT22;42241;53.510;10.170;2022-11-20T14:50:14;3.90;99.90
56336;DHT22;42241;53.510;10.170;2022-11-20T14:52:49;3.90;99.90
56336;DHT22;42241;53.510;10.170;2022-11-20T14:55:24;3.90;99.90
56336;DHT22;42241;53.510;10.170;2022-11-20T14:57:54;3.90;99.90
56336;DHT22;42241;53.510;10.170;2022-11-20T15:00:20;3.80;99.90
56336;DHT22;42241;53.510;10.170;2022-11-20T15:02:46;3.80;99.90
56336;DHT22;42241;53.510;10.170;2022-11-20T15:05:12;3.80;99.90
56336;DHT22;42241;53.510;10.170;2022-11-20T15:07:40;3.70;99.90
56336;DHT22;42241;53.510;10.170;2022-11-20T15:10:10;3.70;99.90
56336;DHT22;42241;53.510;10.170;2022-11-20T15:12:41;3.70;99.90
56336;DHT22;42241;53.510;10.170;2022-11-20T15:15:11;3.70;99.90
56336;DHT22;42241;53.510;10.170;2022-11-20T15:17:37;3.60;99.90
56336;DHT22;42241;53.510;10.170;2022-11-20T15:20:03;3.60;99.90
56336;DHT22;42241;53.510;10.170;2022-11-20T15:22:34;3.60;99.90
56336;DHT22;42241;53.510;10.170;2022-11-20T15:25:00;3.50;99.90
56336;DHT22;42241;53.510;10.170;2022-11-20T15:27:25;3.50;99.90
56336;DHT22;42241;53.510;10.170;2022-11-20T15:29:51;3.50;99.90
56336;DHT22;42241;53.510;10.170;2022-11-20T15:32:16;3.50;99.90
56336;DHT22;42241;53.510;10.170;2022-11-20T15:34:42;3.50;99.90
56336;DHT22;42241;53.510;10.170;2022-11-20T15:37:08;3.50;99.90
56336;DHT22;42241;53.510;10.170;2022-11-20T15:39:33;3.50;99.90
56336;DHT22;42241;53.510;10.170;2022-11-20T15:41:59;3.50;99.90
56336;DHT22;42241;53.510;10.170;2022-11-20T15:44:24;3.50;99.90
56336;DHT22;42241;53.510;10.170;2022-11-20T15:46:50;3.50;99.90
56336;DHT22;42241;53.510;10.170;2022-11-20T15:49:16;3.50;99.90
56336;DHT22;42241;53.510;10.170;2022-11-20T15:51:44;3.50;99.90
56336;DHT22;42241;53.510;10.170;2022-11-20T15:54:12;3.40;99.90
56336;DHT22;42241;53.510;10.170;2022-11-20T15:56:38;3.40;99.90
56336;DHT22;42241;53.510;10.170;2022-11-20T15:59:03;3.40;99.90
56336;DHT22;42241;53.510;10.170;2022-11-20T16:01:29;3.40;99.90
56336;DHT22;42241;53.510;10.170;2022-11-20T16:03:56;3.40;99.90
56336;DHT22;42241;53.510;10.170;2022-11-20T16:06:21;3.40;99.90
56336;DHT22;42241;53.510;10.170;2022-11-20T16:08:47;3.40;99.90
56336;DHT22;42241;53.510;10.170;2022-11-20T16:11:13;3.30;99.90
56336;DHT22;42241;53.510;10.170;2022-11-20T16:13:39;3.30;99.90
56336;DHT22;42241;53.510;10.170;2022-11-20T16:16:25;3.30;99.90
56336;DHT22;42241;53.510;10.170;2022-11-20T16:18:54;3.30;99.90
56336;DHT22;42241;53.510;10.170;2022-11-20T16:21:19;3.30;99.90
56336;DHT22;42241;53.510;10.170;2022-11-20T16:23:45;3.30;99.90
56336;DHT22;42241;53.510;10.170;2022-11-20T16:26:11;3.30;99.90
56336;DHT22;42241;53.510;10.170;2022-11-20T16:28:37;3.30;99.90
56336;DHT22;42241;53.510;10.170;2022-11-20T16:31:12;3.30;99.90
56336;DHT22;42241;53.510;10.170;2022-11-20T16:33:38;3.20;99.90
56336;DHT22;42241;53.510;10.170;2022-11-20T16:36:08;3.20;99.90
56336;DHT22;42241;53.510;10.170;2022-11-20T16:38:34;3.20;99.90
56336;DHT22;42241;53.510;10.170;2022-11-20T16:41:01;3.10;99.90
56336;DHT22;42241;53.510;10.170;2022-11-20T16:43:26;3.10;99.90
56336;DHT22;42241;53.510;10.170;2022-11-20T16:45:52;3.00;99.90
56336;DHT22;42241;53.510;10.170;2022-11-20T16:48:18;3.00;99.90
56336;DHT22;42241;53.510;10.170;2022-11-20T16:50:50;3.00;99.90
56336;DHT22;42241;53.510;10.170;2022-11-20T16:53:16;2.90;99.90
56336;DHT22;42241;53.510;10.170;2022-11-20T16:55:42;2.90;99.90
56336;DHT22;42241;53.510;10.170;2022-11-20T16:58:07;2.90;99.90
56336;DHT22;42241;53.510;10.170;2022-11-20T17:00:36;2.90;99.90
56336;DHT22;42241;53.510;10.170;2022-11-20T17:03:02;2.90;99.90
56336;DHT22;42241;53.510;10.170;2022-11-20T17:05:31;2.90;99.90
56336;DHT22;42241;53.510;10.170;2022-11-20T17:07:57;2.80;99.90
56336;DHT22;42241;53.510;10.170;2022-11-20T17:10:22;2.80;99.90
56336;DHT22;42241;53.510;10.170;2022-11-20T17:12:48;2.80;99.90
56336;DHT22;42241;53.510;10.170;2022-11-20T17:15:13;2.80;99.90
56336;DHT22;42241;53.510;10.170;2022-11-20T17:17:39;2.80;99.90